createdAt,value
2019-04-01T00:01:57.965Z,6.40
2019-04-01T00:04:27.116Z,6.30
2019-04-01T00:06:56.390Z,6.30
2019-04-01T00:09:25.675Z,6.30
2019-04-01T00:11:54.895Z,6.40
2019-04-01T00:14:24.173Z,6.40
2019-04-01T00:16:53.446Z,6.40
2019-04-01T00:19:22.708Z,6.40
2019-04-01T00:21:51.950Z,6.50
2019-04-01T00:24:21.180Z,6.40
2019-04-01T00:26:51.449Z,6.40
2019-04-01T00:29:20.718Z,6.40
2019-04-01T00:31:51.010Z,6.40
2019-04-01T00:34:20.246Z,6.50
2019-04-01T00:36:49.492Z,6.50
2019-04-01T00:39:18.770Z,6.50
2019-04-01T00:42:03.365Z,6.60
2019-04-01T00:44:32.632Z,6.60
2019-04-01T00:47:01.866Z,6.60
2019-04-01T00:49:31.145Z,6.50
2019-04-01T00:52:00.422Z,6.50
2019-04-01T00:54:29.767Z,6.50
2019-04-01T00:56:59.015Z,6.50
2019-04-01T00:59:28.255Z,6.50
2019-04-01T01:01:57.484Z,6.40
2019-04-01T01:04:26.835Z,6.50
2019-04-01T01:06:56.066Z,6.50
2019-04-01T01:09:25.369Z,6.50
2019-04-01T01:11:54.650Z,6.50
2019-04-01T01:14:23.901Z,6.40
2019-04-01T01:16:53.131Z,6.30
2019-04-01T01:19:22.377Z,6.20
2019-04-01T01:21:52.008Z,6.20
2019-04-01T01:24:21.244Z,6.20
2019-04-01T01:26:50.481Z,6.10
2019-04-01T01:29:19.722Z,6.00
2019-04-01T01:31:48.973Z,6.00
2019-04-01T01:34:18.270Z,5.90
2019-04-01T01:36:47.569Z,5.80
2019-04-01T01:39:16.857Z,5.70
2019-04-01T01:41:46.081Z,5.80
2019-04-01T01:44:15.303Z,5.80
2019-04-01T01:46:44.551Z,5.80
2019-04-01T01:49:13.884Z,5.80
2019-04-01T01:51:43.198Z,5.80
2019-04-01T01:54:12.442Z,5.70
2019-04-01T01:56:42.241Z,5.70
2019-04-01T01:59:11.455Z,5.70
2019-04-01T02:01:40.739Z,5.70
2019-04-01T02:04:09.961Z,5.70
2019-04-01T02:06:39.145Z,5.60
2019-04-01T02:09:08.531Z,5.60
2019-04-01T02:11:37.818Z,5.60
2019-04-01T02:14:07.065Z,5.60
2019-04-01T02:16:36.295Z,5.50
2019-04-01T02:19:05.572Z,5.50
2019-04-01T02:21:34.902Z,5.40
2019-04-01T02:24:06.588Z,5.50
2019-04-01T02:26:35.837Z,5.50
2019-04-01T02:29:10.638Z,5.40
2019-04-01T02:31:40.111Z,5.40
2019-04-01T02:34:09.341Z,5.40
2019-04-01T02:36:38.574Z,5.30
2019-04-01T02:39:09.319Z,5.30
2019-04-01T02:41:38.619Z,5.30
2019-04-01T02:44:07.872Z,5.20
2019-04-01T02:46:37.193Z,5.20
2019-04-01T02:49:06.445Z,5.20
2019-04-01T02:51:35.692Z,5.20
2019-04-01T02:54:05.097Z,5.20
2019-04-01T02:56:34.330Z,5.20
2019-04-01T02:59:03.822Z,5.20
2019-04-01T03:01:33.079Z,5.10
2019-04-01T03:04:02.484Z,5.10
2019-04-01T03:06:31.699Z,5.10
2019-04-01T03:09:01.008Z,5.00
2019-04-01T03:11:30.368Z,4.90
2019-04-01T03:13:59.624Z,4.90
2019-04-01T03:16:28.892Z,4.90
2019-04-01T03:18:58.103Z,5.00
2019-04-01T03:21:27.460Z,5.00
2019-04-01T03:23:56.599Z,5.00
2019-04-01T03:26:26.106Z,5.00
2019-04-01T03:28:55.364Z,5.00
2019-04-01T03:31:26.750Z,5.00
2019-04-01T03:33:56.150Z,5.00
2019-04-01T03:36:25.646Z,5.00
2019-04-01T03:38:55.106Z,5.00
2019-04-01T03:41:24.501Z,5.00
2019-04-01T03:43:55.286Z,5.00
2019-04-01T03:46:24.566Z,4.80
2019-04-01T03:48:53.787Z,4.80
2019-04-01T03:51:23.330Z,4.70
2019-04-01T03:53:52.574Z,4.60
2019-04-01T03:56:23.517Z,4.50
2019-04-01T03:58:52.750Z,4.50
2019-04-01T04:01:22.012Z,4.40
2019-04-01T04:03:51.210Z,4.30
2019-04-01T04:06:20.495Z,4.20
2019-04-01T04:08:49.783Z,4.20
2019-04-01T04:11:19.159Z,4.20
2019-04-01T04:13:48.369Z,4.20
2019-04-01T04:16:17.643Z,4.20
2019-04-01T04:18:46.942Z,4.20
2019-04-01T04:21:16.174Z,4.20
2019-04-01T04:23:45.529Z,4.20
2019-04-01T04:26:14.787Z,4.20
2019-04-01T04:28:44.310Z,4.20
2019-04-01T04:31:18.130Z,4.20
2019-04-01T04:33:47.379Z,4.20
2019-04-01T04:36:16.670Z,4.20
2019-04-01T04:38:46.022Z,4.20
2019-04-01T04:41:15.277Z,4.20
2019-04-01T04:43:44.589Z,4.10
2019-04-01T04:46:14.636Z,4.10
2019-04-01T04:48:45.871Z,4.00
2019-04-01T04:51:15.256Z,4.00
2019-04-01T04:53:44.517Z,4.00
2019-04-01T04:56:13.979Z,4.00
2019-04-01T04:58:43.289Z,4.00
2019-04-01T05:01:13.155Z,4.00
2019-04-01T05:03:54.778Z,4.10
2019-04-01T05:06:59.943Z,4.10
2019-04-01T05:09:47.183Z,4.00
2019-04-01T05:12:17.130Z,4.10
2019-04-01T05:14:47.299Z,4.00
2019-04-01T05:17:16.852Z,3.90
2019-04-01T05:19:46.719Z,3.90
2019-04-01T05:22:17.813Z,4.00
2019-04-01T05:24:47.404Z,4.00
2019-04-01T05:27:23.219Z,4.10
2019-04-01T05:29:55.071Z,4.10
2019-04-01T05:32:27.288Z,4.10
2019-04-01T05:34:58.612Z,4.00
2019-04-01T05:37:27.958Z,4.00
2019-04-01T05:39:57.873Z,4.10
2019-04-01T05:42:27.335Z,4.10
2019-04-01T05:44:57.190Z,4.10
2019-04-01T05:47:42.963Z,4.20
2019-04-01T05:50:12.799Z,4.10
2019-04-01T05:52:47.339Z,4.10
2019-04-01T05:55:17.634Z,4.20
2019-04-01T05:57:47.123Z,4.20
2019-04-01T06:00:22.639Z,4.30
2019-04-01T06:02:52.183Z,4.30
2019-04-01T06:05:21.593Z,4.40
2019-04-01T06:07:51.026Z,4.40
2019-04-01T06:10:20.400Z,4.40
2019-04-01T06:12:54.398Z,4.40
2019-04-01T06:15:23.822Z,4.40
2019-04-01T06:17:53.336Z,4.50
2019-04-01T06:20:22.706Z,4.60
2019-04-01T06:22:52.054Z,4.60
2019-04-01T06:25:21.378Z,4.60
2019-04-01T06:27:50.795Z,4.70
2019-04-01T06:30:21.270Z,4.80
2019-04-01T06:32:50.645Z,4.90
2019-04-01T06:35:20.063Z,5.00
2019-04-01T06:37:49.509Z,5.10
2019-04-01T06:40:18.963Z,5.20
2019-04-01T06:42:48.366Z,5.30
2019-04-01T06:45:19.613Z,5.50
2019-04-01T06:47:49.057Z,5.60
2019-04-01T06:50:18.472Z,5.70
2019-04-01T06:52:47.828Z,5.80
2019-04-01T06:55:17.148Z,5.90
2019-04-01T06:57:46.511Z,6.10
2019-04-01T07:00:16.017Z,6.20
2019-04-01T07:02:45.348Z,6.20
2019-04-01T07:05:14.841Z,6.30
2019-04-01T07:07:44.229Z,6.50
2019-04-01T07:10:13.670Z,6.60
2019-04-01T07:12:43.247Z,6.70
2019-04-01T07:15:12.841Z,6.70
2019-04-01T07:17:42.825Z,6.90
2019-04-01T07:20:14.733Z,6.90
2019-04-01T07:22:44.118Z,7.00
2019-04-01T07:25:14.588Z,7.10
2019-04-01T07:27:43.994Z,7.20
2019-04-01T07:30:13.614Z,7.20
2019-04-01T07:32:43.015Z,7.30
2019-04-01T07:35:12.419Z,7.40
2019-04-01T07:37:46.971Z,7.60
2019-04-01T07:40:16.306Z,7.60
2019-04-01T07:42:45.753Z,7.70
2019-04-01T07:45:15.129Z,7.80
2019-04-01T07:47:44.559Z,7.90
2019-04-01T07:50:14.277Z,8.00
2019-04-01T07:52:46.014Z,8.20
2019-04-01T07:55:15.476Z,8.30
2019-04-01T07:57:45.111Z,8.50
2019-04-01T08:00:15.917Z,8.60
2019-04-01T08:02:48.766Z,8.70
2019-04-01T08:05:16.486Z,8.80
2019-04-01T08:07:45.858Z,9.00
2019-04-01T08:10:15.313Z,9.20
2019-04-01T08:12:45.065Z,9.30
2019-04-01T08:15:14.812Z,9.50
2019-04-01T08:17:45.214Z,9.70
2019-04-01T08:20:15.632Z,9.80
2019-04-01T08:22:45.095Z,9.80
2019-04-01T08:25:14.554Z,10.10
2019-04-01T08:27:43.924Z,9.80
2019-04-01T08:30:13.535Z,10.10
2019-04-01T08:32:50.131Z,10.30
2019-04-01T08:35:19.525Z,10.50
2019-04-01T08:37:48.974Z,10.70
2019-04-01T08:40:18.365Z,10.90
2019-04-01T08:42:49.079Z,10.90
2019-04-01T08:45:18.618Z,10.70
2019-04-01T08:47:48.020Z,11.00
2019-04-01T08:50:18.199Z,11.50
2019-04-01T08:52:48.089Z,11.70
2019-04-01T08:55:17.522Z,11.90
2019-04-01T08:57:47.017Z,11.90
2019-04-01T09:00:16.394Z,11.90
2019-04-01T09:02:48.162Z,11.70
2019-04-01T09:05:18.084Z,11.80
2019-04-01T09:07:48.733Z,12.00
2019-04-01T09:10:21.487Z,12.50
2019-04-01T09:12:51.044Z,12.90
2019-04-01T09:15:20.520Z,13.20
2019-04-01T09:17:49.952Z,13.20
2019-04-01T09:20:20.248Z,13.40
2019-04-01T09:25:42.415Z,14.10
2019-04-01T09:28:11.804Z,14.20
2019-04-01T09:30:41.194Z,14.10
2019-04-01T09:33:10.605Z,14.20
2019-04-01T09:35:41.066Z,14.50
2019-04-01T09:38:10.661Z,14.60
2019-04-01T09:40:41.985Z,14.80
2019-04-01T09:43:14.103Z,14.50
2019-04-01T09:45:43.375Z,14.50
2019-04-01T09:48:12.793Z,14.70
2019-04-01T09:50:42.173Z,14.90
2019-04-01T09:53:11.601Z,15.10
2019-04-01T09:55:41.019Z,15.30
2019-04-01T09:58:10.507Z,15.50
2019-04-01T10:00:39.948Z,15.60
2019-04-01T10:03:09.282Z,15.60
2019-04-01T10:05:38.703Z,15.50
2019-04-01T10:08:08.714Z,15.40
2019-04-01T10:10:38.375Z,15.50
2019-04-01T10:13:07.702Z,15.50
2019-04-01T10:15:37.114Z,15.70
2019-04-01T10:18:07.025Z,15.50
2019-04-01T10:20:39.130Z,15.50
2019-04-01T10:23:11.455Z,15.60
2019-04-01T10:25:40.839Z,15.80
2019-04-01T10:28:10.273Z,16.10
2019-04-01T10:30:39.985Z,16.40
2019-04-01T10:33:09.733Z,16.50
2019-04-01T10:35:39.260Z,16.30
2019-04-01T10:38:09.432Z,16.10
2019-04-01T10:40:38.879Z,16.10
2019-04-01T10:43:11.811Z,16.20
2019-04-01T10:45:41.462Z,16.50
2019-04-01T10:48:10.936Z,16.80
2019-04-01T10:50:40.287Z,16.90
2019-04-01T10:53:12.475Z,16.80
2019-04-01T10:55:41.986Z,16.90
2019-04-01T10:58:11.392Z,16.80
2019-04-01T11:00:41.009Z,16.80
2019-04-01T11:03:12.191Z,16.80
2019-04-01T11:05:41.601Z,16.80
2019-04-01T11:08:10.935Z,16.90
2019-04-01T11:10:40.401Z,17.10
2019-04-01T11:13:09.667Z,17.20
2019-04-01T11:15:39.082Z,16.80
2019-04-01T11:18:08.520Z,17.00
2019-04-01T11:20:40.805Z,16.80
2019-04-01T11:23:10.168Z,17.10
2019-04-01T11:25:40.085Z,17.30
2019-04-01T11:28:09.504Z,17.50
2019-04-01T11:30:39.190Z,17.60
2019-04-01T11:33:08.509Z,17.80
2019-04-01T11:35:37.786Z,18.00
2019-04-01T11:38:07.186Z,17.50
2019-04-01T11:40:38.770Z,17.20
2019-04-01T11:43:07.521Z,17.30
2019-04-01T11:45:39.371Z,17.10
2019-04-01T11:48:09.173Z,17.20
2019-04-01T11:50:39.278Z,17.20
2019-04-01T11:53:10.043Z,17.20
2019-04-01T11:55:41.368Z,16.00
2019-04-01T11:58:10.900Z,16.40
2019-04-01T12:00:42.568Z,17.00
2019-04-01T12:03:11.955Z,17.40
2019-04-01T12:05:41.270Z,17.50
2019-04-01T12:08:14.202Z,17.50
2019-04-01T12:10:43.601Z,17.70
2019-04-01T12:13:13.148Z,18.00
2019-04-01T12:15:42.626Z,17.80
2019-04-01T12:18:12.368Z,18.00
2019-04-01T12:20:51.847Z,17.80
2019-04-01T12:23:21.495Z,17.60
2019-04-01T12:25:50.886Z,17.40
2019-04-01T12:28:21.776Z,17.60
2019-04-01T12:30:52.178Z,17.50
2019-04-01T12:33:25.842Z,17.70
2019-04-01T12:35:53.413Z,18.00
2019-04-01T12:38:22.922Z,17.60
2019-04-01T12:40:52.190Z,16.50
2019-04-01T12:43:23.558Z,16.80
2019-04-01T12:45:52.764Z,16.80
2019-04-01T12:48:25.443Z,17.10
2019-04-01T12:50:56.204Z,16.70
2019-04-01T12:53:25.653Z,16.70
2019-04-01T12:55:54.982Z,17.00
2019-04-01T12:58:25.703Z,16.90
2019-04-01T13:01:00.848Z,16.70
2019-04-01T13:03:29.458Z,16.40
2019-04-01T13:05:58.869Z,16.40
2019-04-01T13:08:28.289Z,16.50
2019-04-01T13:11:00.151Z,16.50
2019-04-01T13:13:31.776Z,16.50
2019-04-01T13:16:01.215Z,16.80
2019-04-01T13:18:32.744Z,17.00
2019-04-01T13:21:02.619Z,16.50
2019-04-01T13:23:33.382Z,16.60
2019-04-01T13:26:02.911Z,17.00
2019-04-01T13:28:34.280Z,17.20
2019-04-01T13:31:03.645Z,17.30
2019-04-01T13:33:33.213Z,17.30
2019-04-01T13:36:02.547Z,17.20
2019-04-01T13:38:33.128Z,17.10
2019-04-01T13:41:02.834Z,17.10
2019-04-01T13:43:32.690Z,17.10
2019-04-01T13:46:03.078Z,16.90
2019-04-01T13:48:32.439Z,17.00
2019-04-01T13:51:02.091Z,17.10
2019-04-01T13:53:31.527Z,17.30
2019-04-01T13:56:03.367Z,17.30
2019-04-01T13:58:32.877Z,17.10
2019-04-01T14:01:03.842Z,17.10
2019-04-01T14:03:34.037Z,16.90
2019-04-01T14:06:03.447Z,17.10
2019-04-01T14:08:32.941Z,17.30
2019-04-01T14:11:05.784Z,17.50
2019-04-01T14:13:33.858Z,17.70
2019-04-01T14:16:03.325Z,17.80
2019-04-01T14:18:32.914Z,18.00
2019-04-01T14:21:17.362Z,17.80
2019-04-01T14:23:53.520Z,17.70
2019-04-01T14:27:13.256Z,17.00
2019-04-01T14:30:41.416Z,17.30
2019-04-01T14:41:40.192Z,17.50
2019-04-01T14:44:33.790Z,17.50
2019-04-01T14:50:27.072Z,17.50
2019-04-01T14:52:56.294Z,17.40
2019-04-01T14:55:25.550Z,17.60
2019-04-01T14:57:54.985Z,16.70
2019-04-01T15:00:27.165Z,16.70
2019-04-01T15:02:57.441Z,17.10
2019-04-01T15:05:27.400Z,16.90
2019-04-01T15:08:05.084Z,16.70
2019-04-01T15:10:35.063Z,16.70
2019-04-01T15:13:06.079Z,16.90
2019-04-01T15:15:36.584Z,16.80
2019-04-01T15:18:10.812Z,16.90
2019-04-01T15:22:10.088Z,16.80
2019-04-01T15:24:36.182Z,16.80
2019-04-01T15:27:14.363Z,16.80
2019-04-01T15:30:05.044Z,16.70
2019-04-01T15:32:42.069Z,16.40
2019-04-01T15:35:23.606Z,16.30
2019-04-01T15:37:56.163Z,16.30
2019-04-01T15:40:38.603Z,16.20
2019-04-01T15:43:13.593Z,16.10
2019-04-01T15:45:49.757Z,16.00
2019-04-01T15:48:19.243Z,16.00
2019-04-01T15:50:52.550Z,16.10
2019-04-01T15:53:27.083Z,16.10
2019-04-01T15:55:56.669Z,16.10
2019-04-01T15:58:28.778Z,16.30
2019-04-01T16:00:58.786Z,16.20
2019-04-01T16:03:31.617Z,16.30
2019-04-01T16:06:07.738Z,16.70
2019-04-01T16:08:37.566Z,17.00
2019-04-01T16:11:13.074Z,17.00
2019-04-01T16:14:04.276Z,16.60
2019-04-01T16:16:38.031Z,16.60
2019-04-01T16:19:07.877Z,15.80
2019-04-01T16:21:45.045Z,15.70
2019-04-01T16:24:16.734Z,15.50
2019-04-01T16:26:50.592Z,15.20
2019-04-01T16:29:23.171Z,15.00
2019-04-01T16:31:55.382Z,14.80
2019-04-01T16:34:24.626Z,14.60
2019-04-01T16:36:55.992Z,14.80
2019-04-01T16:39:25.387Z,14.80
2019-04-01T16:41:56.329Z,14.50
2019-04-01T16:44:36.610Z,14.30
2019-04-01T16:50:37.770Z,13.80
2019-04-01T16:59:38.438Z,13.20
2019-04-01T17:02:22.696Z,13.10
2019-04-01T17:04:53.201Z,13.00
2019-04-01T17:07:54.992Z,12.90
2019-04-01T17:11:02.146Z,12.80
2019-04-01T17:20:04.010Z,12.40
2019-04-01T17:40:16.781Z,11.90
2019-04-01T17:42:48.628Z,11.80
2019-04-01T17:45:40.329Z,11.80
2019-04-01T17:54:39.991Z,11.70
2019-04-01T18:14:45.459Z,11.30
2019-04-01T18:17:33.016Z,11.30
2019-04-01T18:20:23.212Z,11.20
2019-04-01T18:26:30.551Z,11.00
2019-04-01T18:33:05.723Z,11.00
2019-04-01T18:36:11.673Z,10.80
2019-04-01T18:38:41.178Z,10.80
2019-04-01T18:41:18.041Z,10.70
2019-04-01T18:43:51.826Z,10.70
2019-04-01T18:46:23.447Z,10.60
2019-04-01T18:58:28.055Z,10.40
2019-04-01T19:00:59.709Z,10.30
2019-04-01T19:03:34.031Z,10.30
2019-04-01T19:06:07.263Z,10.30
2019-04-01T19:08:39.612Z,10.30
2019-04-01T19:11:22.919Z,10.30
2019-04-01T19:17:58.342Z,10.10
2019-04-01T19:20:30.420Z,10.00
2019-04-01T19:22:59.283Z,10.00
2019-04-01T19:25:29.916Z,9.90
2019-04-01T19:27:59.251Z,9.90
2019-04-01T19:30:29.201Z,10.00
2019-04-01T19:33:00.543Z,9.80
2019-04-01T19:35:30.579Z,9.70
2019-04-01T19:37:59.821Z,9.70
2019-04-01T19:40:34.028Z,9.70
2019-04-01T19:43:09.491Z,9.70
2019-04-01T19:45:50.692Z,9.70
2019-04-01T19:48:19.732Z,9.70
2019-04-01T19:50:49.707Z,9.60
2019-04-01T19:53:21.412Z,9.50
2019-04-01T19:55:51.703Z,9.40
2019-04-01T19:58:21.685Z,9.60
2019-04-01T20:00:52.061Z,9.50
2019-04-01T20:03:21.411Z,9.40
2019-04-01T20:05:52.030Z,9.30
2019-04-01T20:08:23.414Z,9.30
2019-04-01T20:10:52.727Z,9.30
2019-04-01T20:13:22.039Z,9.20
2019-04-01T20:15:54.135Z,9.10
2019-04-01T20:18:27.237Z,9.10
2019-04-01T20:20:56.858Z,9.10
2019-04-01T20:23:27.475Z,9.10
2019-04-01T20:25:56.873Z,9.10
2019-04-01T20:28:30.357Z,9.10
2019-04-01T20:31:00.861Z,9.00
2019-04-01T20:33:33.181Z,9.00
2019-04-01T20:36:05.777Z,9.00
2019-04-01T20:38:35.121Z,8.90
2019-04-01T20:41:04.460Z,8.90
2019-04-01T20:43:33.720Z,8.90
2019-04-01T20:46:03.045Z,8.80
2019-04-01T20:48:57.699Z,8.80
2019-04-01T20:51:26.982Z,8.80
2019-04-01T20:54:09.794Z,8.80
2019-04-01T20:56:40.770Z,8.80
2019-04-01T20:59:14.471Z,8.70
2019-04-01T21:01:44.441Z,8.70
2019-04-01T21:04:13.973Z,8.60
2019-04-01T21:06:49.249Z,8.50
2019-04-01T21:09:33.414Z,8.50
2019-04-01T21:12:04.835Z,8.50
2019-04-01T21:14:35.932Z,8.50
2019-04-01T21:17:05.157Z,8.40
2019-04-01T21:19:37.227Z,8.50
2019-04-01T21:22:07.192Z,8.40
2019-04-01T21:24:37.404Z,8.30
2019-04-01T21:27:06.728Z,8.30
2019-04-01T21:29:36.005Z,8.30
2019-04-01T21:32:05.300Z,8.30
2019-04-01T21:34:34.543Z,8.20
2019-04-01T21:37:03.818Z,8.20
2019-04-01T21:39:33.118Z,8.10
2019-04-01T21:42:02.367Z,8.10
2019-04-01T21:44:31.617Z,8.10
2019-04-01T21:49:49.185Z,8.00
2019-04-01T21:52:18.417Z,7.80
2019-04-01T21:54:47.595Z,7.80
2019-04-01T21:57:16.886Z,7.80
2019-04-01T21:59:46.416Z,7.80
2019-04-01T22:02:15.701Z,7.80
2019-04-01T22:04:45.193Z,7.70
2019-04-01T22:07:14.504Z,7.70
2019-04-01T22:09:44.945Z,7.60
2019-04-01T22:12:32.759Z,7.60
2019-04-01T22:15:02.167Z,7.60
2019-04-01T22:17:31.647Z,7.60
2019-04-01T22:20:10.248Z,7.60
2019-04-01T22:22:39.591Z,7.60
2019-04-01T22:25:28.165Z,7.60
2019-04-01T22:27:58.011Z,7.60
2019-04-01T22:30:27.282Z,7.50
2019-04-01T22:33:04.594Z,7.50
2019-04-01T22:35:39.030Z,7.50
2019-04-01T22:38:06.209Z,7.50
2019-04-01T22:40:49.908Z,7.40
2019-04-01T22:43:19.575Z,7.40
2019-04-01T22:48:52.316Z,7.30
2019-04-01T22:51:21.557Z,7.30
2019-04-01T22:53:54.182Z,7.20
2019-04-01T22:56:24.481Z,7.30
2019-04-01T22:58:58.083Z,7.30
2019-04-01T23:01:27.218Z,7.20
2019-04-01T23:04:04.825Z,7.20
2019-04-01T23:06:49.530Z,7.10
2019-04-01T23:09:27.071Z,7.10
2019-04-01T23:12:03.812Z,7.10
2019-04-01T23:18:24.548Z,7.10
2019-04-01T23:20:56.242Z,7.00
2019-04-01T23:23:29.063Z,6.90
2019-04-01T23:25:58.307Z,6.90
2019-04-01T23:28:29.522Z,6.90
2019-04-01T23:31:05.114Z,6.80
2019-04-01T23:34:13.214Z,6.80
2019-04-01T23:37:02.852Z,6.70
2019-04-01T23:39:55.929Z,6.60
2019-04-01T23:42:32.677Z,6.60
2019-04-01T23:45:01.894Z,6.60
2019-04-01T23:47:36.145Z,6.60
2019-04-01T23:50:09.892Z,6.50
2019-04-01T23:53:11.789Z,6.50
2019-04-01T23:55:51.677Z,6.40
